createdAt,value
2022-11-21T00:01:37.219Z,1
2022-11-21T00:03:42.500Z,1
2022-11-21T00:05:36.952Z,1
2022-11-21T00:07:41.779Z,1
2022-11-21T00:09:40.187Z,1
2022-11-21T00:11:36.583Z,1
2022-11-21T00:13:37.056Z,1
2022-11-21T00:15:36.995Z,1
2022-11-21T00:17:40.201Z,1
2022-11-21T00:19:40.365Z,1
2022-11-21T00:21:36.982Z,1
2022-11-21T00:23:37.200Z,1
2022-11-21T00:25:38.274Z,1
2022-11-21T00:27:36.917Z,1
2022-11-21T00:29:37.002Z,1
2022-11-21T00:31:43.813Z,1
2022-11-21T00:33:43.575Z,1
2022-11-21T00:35:40.170Z,1
2022-11-21T00:37:37.070Z,1
2022-11-21T00:39:37.244Z,1
2022-11-21T00:41:36.631Z,1
2022-11-21T00:43:43.830Z,1
2022-11-21T00:45:40.610Z,1
2022-11-21T00:47:37.003Z,1
2022-11-21T00:49:40.603Z,1
2022-11-21T00:51:36.341Z,1
2022-11-21T00:55:37.107Z,1
2022-11-21T00:57:37.241Z,1
2022-11-21T00:59:37.131Z,1
2022-11-21T01:01:38.079Z,1
2022-11-21T01:03:37.106Z,1
2022-11-21T01:05:40.159Z,1
2022-11-21T01:07:37.347Z,1
2022-11-21T01:09:43.769Z,1
2022-11-21T01:11:36.762Z,1
2022-11-21T01:13:40.567Z,1
2022-11-21T01:15:37.016Z,1
2022-11-21T01:17:37.034Z,1
2022-11-21T01:19:37.320Z,1
2022-11-21T01:21:43.848Z,1
2022-11-21T01:23:37.034Z,1
2022-11-21T01:25:40.123Z,1
2022-11-21T01:27:37.026Z,1
2022-11-21T01:29:37.016Z,1
2022-11-21T01:33:37.087Z,1
2022-11-21T01:35:40.492Z,1
2022-11-21T01:37:37.099Z,1
2022-11-21T01:39:36.523Z,1
2022-11-21T01:41:42.470Z,1
2022-11-21T01:43:40.594Z,1
2022-11-21T01:45:40.645Z,1
2022-11-21T01:47:37.066Z,1
2022-11-21T01:49:40.192Z,1
2022-11-21T01:51:40.760Z,1
2022-11-21T01:53:37.021Z,1
2022-11-21T01:55:40.601Z,1
2022-11-21T01:57:40.569Z,1
2022-11-21T01:59:40.646Z,1
2022-11-21T02:01:36.956Z,1
2022-11-21T02:03:37.024Z,1
2022-11-21T02:05:40.569Z,1
2022-11-21T02:07:37.180Z,1
2022-11-21T02:09:37.181Z,1
2022-11-21T02:11:37.203Z,1
2022-11-21T02:13:37.156Z,1
2022-11-21T02:15:41.908Z,1
2022-11-21T02:17:43.727Z,1
2022-11-21T02:21:36.614Z,1
2022-11-21T02:23:37.290Z,1
2022-11-21T02:25:41.542Z,1
2022-11-21T02:27:37.121Z,1
2022-11-21T02:29:42.451Z,1
2022-11-21T02:31:37.354Z,1
2022-11-21T02:33:37.244Z,1
2022-11-21T02:35:40.322Z,1
2022-11-21T02:37:37.064Z,1
2022-11-21T02:39:37.286Z,1
2022-11-21T02:41:37.027Z,1
2022-11-21T02:43:37.520Z,1
2022-11-21T02:45:37.057Z,1
2022-11-21T02:47:36.706Z,1
2022-11-21T02:49:40.369Z,1
2022-11-21T02:51:36.570Z,1
2022-11-21T02:53:43.278Z,1
2022-11-21T02:55:36.193Z,1
2022-11-21T02:57:37.047Z,1
2022-11-21T02:59:43.233Z,1
2022-11-21T03:01:43.848Z,1
2022-11-21T03:03:37.350Z,1
2022-11-21T03:05:40.208Z,1
2022-11-21T03:07:40.240Z,1
2022-11-21T03:09:43.702Z,1
2022-11-21T03:11:37.193Z,1
2022-11-21T03:13:40.747Z,1
2022-11-21T03:15:36.958Z,1
2022-11-21T03:17:41.927Z,1
2022-11-21T03:19:37.086Z,1
2022-11-21T03:21:37.429Z,1
2022-11-21T03:23:38.722Z,1
2022-11-21T03:25:40.372Z,1
2022-11-21T03:27:36.972Z,1
2022-11-21T03:29:40.238Z,1
2022-11-21T03:31:40.597Z,1
2022-11-21T03:33:37.291Z,1
2022-11-21T03:35:37.059Z,1
2022-11-21T03:37:37.006Z,1
2022-11-21T03:39:37.024Z,1
2022-11-21T03:41:37.365Z,1
2022-11-21T03:45:36.934Z,1
2022-11-21T03:47:37.225Z,1
2022-11-21T03:49:41.620Z,1
2022-11-21T03:51:37.369Z,1
2022-11-21T03:53:38.313Z,1
2022-11-21T03:55:37.246Z,1
2022-11-21T03:57:36.643Z,1
2022-11-21T03:59:38.402Z,1
2022-11-21T04:01:37.640Z,1
2022-11-21T04:03:37.011Z,1
2022-11-21T04:05:38.404Z,1
2022-11-21T04:07:40.771Z,1
2022-11-21T04:09:37.128Z,1
2022-11-21T04:11:36.765Z,1
2022-11-21T04:13:41.914Z,1
2022-11-21T04:15:37.046Z,1
2022-11-21T04:17:42.996Z,1
2022-11-21T04:19:36.996Z,1
2022-11-21T04:21:41.307Z,1
2022-11-21T04:23:40.226Z,1
2022-11-21T04:25:40.688Z,1
2022-11-21T04:27:43.759Z,1
2022-11-21T04:29:36.944Z,1
2022-11-21T04:31:37.554Z,1
2022-11-21T04:33:45.007Z,1
2022-11-21T04:35:36.941Z,1
2022-11-21T04:37:37.014Z,1
2022-11-21T04:39:38.421Z,1
2022-11-21T04:41:37.297Z,1
2022-11-21T04:43:37.399Z,1
2022-11-21T04:45:46.493Z,1
2022-11-21T04:47:36.925Z,1
2022-11-21T04:49:37.139Z,1
2022-11-21T04:51:36.780Z,1
2022-11-21T04:53:43.019Z,1
2022-11-21T04:57:36.966Z,1
2022-11-21T04:59:37.355Z,1
2022-11-21T05:01:38.459Z,1
2022-11-21T05:03:36.580Z,1
2022-11-21T05:05:36.989Z,1
2022-11-21T05:07:42.196Z,1
2022-11-21T05:09:36.323Z,1
2022-11-21T05:11:44.018Z,1
2022-11-21T05:13:37.317Z,1
2022-11-21T05:15:36.998Z,1
2022-11-21T05:17:38.808Z,1
2022-11-21T05:19:37.319Z,1
2022-11-21T05:21:36.661Z,1
2022-11-21T05:23:38.444Z,1
2022-11-21T05:25:40.491Z,1
2022-11-21T05:27:37.109Z,1
2022-11-21T05:29:43.882Z,1
2022-11-21T05:31:36.857Z,1
2022-11-21T05:33:40.533Z,1
2022-11-21T05:35:41.772Z,1
2022-11-21T05:39:37.062Z,1
2022-11-21T05:41:38.006Z,1
2022-11-21T05:43:43.874Z,0
2022-11-21T05:45:40.541Z,0
2022-11-21T05:47:40.187Z,0
2022-11-21T05:49:36.999Z,0
2022-11-21T05:51:37.962Z,0
2022-11-21T05:53:36.974Z,0
2022-11-21T05:55:37.183Z,0.1
2022-11-21T05:57:43.484Z,0.3
2022-11-21T06:01:37.244Z,0.7
2022-11-21T06:03:42.638Z,1.1
2022-11-21T06:05:37.023Z,1.5
2022-11-21T06:07:40.556Z,3.3
2022-11-21T06:09:43.892Z,7.4
2022-11-21T06:11:36.835Z,9.5
2022-11-21T06:13:43.772Z,7
2022-11-21T06:15:40.253Z,10.5
2022-11-21T06:17:43.507Z,14.9
2022-11-21T06:19:37.370Z,19.1
2022-11-21T06:21:40.608Z,25.8
2022-11-21T06:23:37.280Z,22.2
2022-11-21T06:25:37.116Z,24.5
2022-11-21T06:27:42.687Z,24.5
2022-11-21T06:29:37.262Z,24.5
2022-11-21T06:31:37.459Z,23.3
2022-11-21T06:33:43.741Z,40.4
2022-11-21T06:35:37.071Z,47
2022-11-21T06:37:41.627Z,51.9
2022-11-21T06:39:40.759Z,73.7
2022-11-21T06:41:37.315Z,99.5
2022-11-21T06:43:37.692Z,190.6
2022-11-21T06:45:37.027Z,284.3
2022-11-21T06:47:41.522Z,330.3
2022-11-21T06:49:37.202Z,270.4
2022-11-21T06:51:36.760Z,314.2
2022-11-21T06:53:38.418Z,284.3
2022-11-21T06:55:40.682Z,232.8
2022-11-21T06:57:37.125Z,210.6
2022-11-21T06:59:37.111Z,314.2
2022-11-21T07:01:37.310Z,445.9
2022-11-21T07:03:40.699Z,897.8
2022-11-21T07:05:37.362Z,1043.1
2022-11-21T07:07:37.168Z,1043.1
2022-11-21T07:10:23.320Z,735.1
2022-11-21T07:12:18.600Z,544.6
2022-11-21T07:14:22.571Z,492.7
2022-11-21T07:16:22.151Z,699.2
2022-11-21T07:18:21.961Z,1043.1
2022-11-21T07:20:18.331Z,1808
2022-11-21T07:22:19.708Z,2208.3
2022-11-21T07:24:21.709Z,2565.7
2022-11-21T07:26:22.269Z,3133.8
2022-11-21T07:28:17.903Z,2981
2022-11-21T07:30:18.520Z,1636
2022-11-21T07:32:24.823Z,699.2
2022-11-21T07:34:25.553Z,772.8
2022-11-21T07:36:18.857Z,1096.6
2022-11-21T07:38:18.485Z,1480.3
2022-11-21T07:40:18.070Z,1480.3
2022-11-21T07:42:18.443Z,2565.7
2022-11-21T07:44:18.890Z,3463.4
2022-11-21T07:46:25.359Z,2697.3
2022-11-21T07:48:18.777Z,2321.6
2022-11-21T07:50:18.130Z,3133.8
2022-11-21T07:52:21.878Z,2440.6
2022-11-21T07:54:22.426Z,3463.4
2022-11-21T07:56:18.705Z,4675.1
2022-11-21T07:58:25.282Z,2565.7
2022-11-21T08:00:22.378Z,2565.7
2022-11-21T08:02:18.418Z,2565.7
2022-11-21T08:04:18.453Z,2835.6
2022-11-21T08:06:18.918Z,2981
2022-11-21T08:08:18.489Z,4023.9
2022-11-21T08:10:20.273Z,4914.8
2022-11-21T08:12:17.876Z,6310.7
2022-11-21T08:14:18.573Z,10938
2022-11-21T08:16:19.376Z,26903.2
2022-11-21T08:18:21.844Z,8518.5
2022-11-21T08:20:21.789Z,12708.2
2022-11-21T08:22:18.679Z,9897.1
2022-11-21T08:24:21.864Z,10404.6
2022-11-21T08:26:18.620Z,6974.4
2022-11-21T08:28:25.558Z,7332
2022-11-21T08:30:18.821Z,28282.5
2022-11-21T08:32:18.017Z,5431.7
2022-11-21T08:34:22.706Z,3294.5
2022-11-21T08:36:18.747Z,5431.7
2022-11-21T08:38:25.928Z,2697.3
2022-11-21T08:40:18.747Z,2697.3
2022-11-21T08:42:20.147Z,3641
2022-11-21T08:44:18.039Z,9897.1
2022-11-21T08:46:18.229Z,13359.7
2022-11-21T08:48:18.436Z,3133.8
2022-11-21T08:50:21.535Z,3133.8
2022-11-21T08:52:21.763Z,3827.6
2022-11-21T08:54:22.395Z,2697.3
2022-11-21T08:58:22.098Z,4230.2
2022-11-21T09:00:25.660Z,3641
2022-11-21T09:02:18.138Z,3641
2022-11-21T09:04:22.009Z,4447.1
2022-11-21T09:06:22.043Z,6310.7
2022-11-21T09:08:21.694Z,9897.1
2022-11-21T09:10:18.501Z,10404.6
2022-11-21T09:12:18.494Z,8103.1
2022-11-21T09:14:18.682Z,59874.1
2022-11-21T09:16:20.552Z,59874.1
2022-11-21T09:18:18.507Z,59874.1
2022-11-21T09:20:18.622Z,59874.1
2022-11-21T09:22:18.035Z,59874.1
2022-11-21T09:24:18.499Z,59874.1
2022-11-21T09:28:18.662Z,62944
2022-11-21T09:30:18.699Z,22026.5
2022-11-21T09:34:16.267Z,66171.2
2022-11-21T09:36:18.143Z,62944
2022-11-21T09:38:24.132Z,66171.2
2022-11-21T09:40:18.954Z,66171.2
2022-11-21T09:42:18.530Z,66171.2
2022-11-21T09:44:21.961Z,66171.2
2022-11-21T09:46:18.216Z,69563.8
2022-11-21T09:48:18.312Z,36315.5
2022-11-21T09:50:21.989Z,18033.7
2022-11-21T09:52:17.983Z,73130.4
2022-11-21T09:54:19.882Z,76879.9
2022-11-21T09:56:17.984Z,76879.9
2022-11-21T09:58:18.142Z,73130.4
2022-11-21T10:00:18.385Z,76879.9
2022-11-21T10:02:18.015Z,54176.4
2022-11-21T10:04:21.683Z,36315.5
2022-11-21T10:06:18.570Z,25591.1
2022-11-21T10:08:18.681Z,56954
2022-11-21T10:12:18.783Z,18033.7
2022-11-21T10:14:21.766Z,22026.5
2022-11-21T10:16:18.357Z,80821.6
2022-11-21T10:18:19.865Z,38177.4
2022-11-21T10:20:18.251Z,80821.6
2022-11-21T10:22:22.091Z,80821.6
2022-11-21T10:24:18.504Z,16317.6
2022-11-21T10:26:18.714Z,11498.8
2022-11-21T10:30:18.830Z,76879.9
2022-11-21T10:32:17.978Z,80821.6
2022-11-21T10:34:17.986Z,12088.4
2022-11-21T10:36:18.030Z,20952.2
2022-11-21T10:38:18.524Z,19930.4
2022-11-21T10:40:18.031Z,54176.4
2022-11-21T10:42:24.672Z,89321.7
2022-11-21T10:44:18.512Z,46630
2022-11-21T10:46:18.626Z,17154.2
2022-11-21T10:48:18.958Z,31257
2022-11-21T10:50:18.331Z,18033.7
2022-11-21T10:52:18.485Z,66171.2
2022-11-21T10:54:22.716Z,8518.5
2022-11-21T10:56:18.717Z,12708.2
2022-11-21T10:58:17.990Z,66171.2
2022-11-21T11:00:18.210Z,84965.5
2022-11-21T11:02:18.721Z,84965.5
2022-11-21T11:04:28.448Z,84965.5
2022-11-21T11:06:18.779Z,84965.5
2022-11-21T11:08:21.241Z,46630
2022-11-21T11:10:20.570Z,7707.9
2022-11-21T11:12:18.795Z,5166.8
2022-11-21T11:14:19.423Z,4675.1
2022-11-21T11:16:18.644Z,4914.8
2022-11-21T11:18:18.199Z,4914.8
2022-11-21T11:20:18.500Z,4675.1
2022-11-21T11:22:18.767Z,3294.5
2022-11-21T11:24:18.698Z,2565.7
2022-11-21T11:26:18.701Z,1900.7
2022-11-21T11:28:17.903Z,1636
2022-11-21T11:30:18.334Z,1998.2
2022-11-21T11:32:21.094Z,2321.6
2022-11-21T11:34:17.981Z,2100.6
2022-11-21T11:36:18.660Z,1998.2
2022-11-21T11:38:18.009Z,2100.6
2022-11-21T11:40:18.007Z,3463.4
2022-11-21T11:42:18.142Z,76879.9
2022-11-21T11:44:22.192Z,80821.6
2022-11-21T11:46:18.438Z,80821.6
2022-11-21T11:48:18.797Z,18958.4
2022-11-21T11:50:25.428Z,80821.6
2022-11-21T11:52:17.096Z,76879.9
2022-11-21T11:54:18.441Z,76879.9
2022-11-21T11:56:22.009Z,80821.6
2022-11-21T11:58:25.775Z,76879.9
2022-11-21T12:00:18.455Z,80821.6
2022-11-21T12:02:18.956Z,42192.6
2022-11-21T12:04:22.197Z,42192.6
2022-11-21T12:06:36.292Z,8955.3
2022-11-21T12:08:41.153Z,80821.6
2022-11-21T12:10:17.992Z,8518.5
2022-11-21T12:12:17.987Z,8518.5
2022-11-21T12:14:22.106Z,8955.3
2022-11-21T12:16:18.620Z,44355.9
2022-11-21T12:18:17.908Z,8103.1
2022-11-21T12:20:17.986Z,10938
2022-11-21T12:22:18.868Z,13359.7
2022-11-21T12:24:18.814Z,18033.7
2022-11-21T12:26:25.651Z,38177.4
2022-11-21T12:28:18.012Z,73130.4
2022-11-21T12:30:21.644Z,69563.8
2022-11-21T12:32:18.658Z,66171.2
2022-11-21T12:34:22.257Z,69563.8
2022-11-21T12:36:19.075Z,12088.4
2022-11-21T12:40:18.878Z,49020.8
2022-11-21T12:42:18.611Z,62944
2022-11-21T12:44:18.653Z,69563.8
2022-11-21T12:46:18.259Z,12708.2
2022-11-21T12:48:17.953Z,66171.2
2022-11-21T12:50:18.065Z,6310.7
2022-11-21T12:52:18.663Z,3641
2022-11-21T12:54:18.726Z,2981
2022-11-21T12:56:18.933Z,2697.3
2022-11-21T12:58:18.559Z,2981
2022-11-21T13:00:22.133Z,4230.2
2022-11-21T13:02:18.690Z,5710.1
2022-11-21T13:04:18.736Z,56954
2022-11-21T13:06:18.634Z,62944
2022-11-21T13:08:22.950Z,59874.1
2022-11-21T13:10:17.946Z,56954
2022-11-21T13:12:21.722Z,62944
2022-11-21T13:14:25.138Z,62944
2022-11-21T13:16:21.924Z,62944
2022-11-21T13:18:18.832Z,62944
2022-11-21T13:20:22.093Z,62944
2022-11-21T13:22:18.681Z,59874.1
2022-11-21T13:24:18.567Z,59874.1
2022-11-21T13:26:22.055Z,59874.1
2022-11-21T13:28:21.324Z,59874.1
2022-11-21T13:30:22.192Z,56954
2022-11-21T13:32:18.707Z,56954
2022-11-21T13:34:25.782Z,44355.9
2022-11-21T13:36:25.525Z,54176.4
2022-11-21T13:38:18.052Z,54176.4
2022-11-21T13:40:22.169Z,51534.2
2022-11-21T13:42:20.344Z,49020.8
2022-11-21T13:44:22.365Z,49020.8
2022-11-21T13:46:18.697Z,49020.8
2022-11-21T13:48:19.857Z,46630
2022-11-21T13:50:17.930Z,40134.8
2022-11-21T13:52:21.893Z,28282.5
2022-11-21T13:54:25.207Z,6634.2
2022-11-21T13:56:18.595Z,5166.8
2022-11-21T13:58:25.731Z,8103.1
2022-11-21T14:00:20.269Z,6310.7
2022-11-21T14:02:18.017Z,11498.8
2022-11-21T14:04:18.487Z,24343
2022-11-21T14:06:21.794Z,12088.4
2022-11-21T14:08:18.213Z,7707.9
2022-11-21T14:10:18.143Z,4675.1
2022-11-21T14:12:18.575Z,3641
2022-11-21T14:14:22.671Z,3641
2022-11-21T14:16:18.011Z,3641
2022-11-21T14:18:18.544Z,3133.8
2022-11-21T14:20:17.994Z,2835.6
2022-11-21T14:22:18.535Z,2981
2022-11-21T14:26:18.634Z,3294.5
2022-11-21T14:28:18.542Z,2981
2022-11-21T14:30:18.767Z,2697.3
2022-11-21T14:32:18.617Z,2440.6
2022-11-21T14:34:18.422Z,2321.6
2022-11-21T14:36:18.560Z,2321.6
2022-11-21T14:38:25.541Z,2208.3
2022-11-21T14:40:18.051Z,1998.2
2022-11-21T14:42:18.673Z,1808
2022-11-21T14:44:22.271Z,1719.9
2022-11-21T14:46:18.000Z,1636
2022-11-21T14:48:18.465Z,1556.2
2022-11-21T14:50:17.933Z,1480.3
2022-11-21T14:52:19.237Z,1480.3
2022-11-21T14:54:18.735Z,1408.1
2022-11-21T14:56:18.800Z,1408.1
2022-11-21T14:58:18.610Z,1408.1
2022-11-21T15:00:36.576Z,1339.4
2022-11-21T15:02:22.514Z,1274.1
2022-11-21T15:04:18.565Z,1152.9
2022-11-21T15:06:18.571Z,1043.1
2022-11-21T15:08:44.676Z,943.9
2022-11-21T15:10:28.932Z,812.4
2022-11-21T15:12:18.008Z,699.2
2022-11-21T15:14:18.548Z,601.8
2022-11-21T15:16:18.939Z,518
2022-11-21T15:20:22.445Z,365
2022-11-21T15:22:18.981Z,314.2
2022-11-21T15:24:17.935Z,284.3
2022-11-21T15:26:25.675Z,244.7
2022-11-21T15:28:22.315Z,221.4
2022-11-21T15:30:25.705Z,190.6
2022-11-21T15:32:18.016Z,164
2022-11-21T15:34:36.508Z,134.3
2022-11-21T15:36:21.904Z,109.9
2022-11-21T15:38:18.680Z,90
2022-11-21T15:40:18.810Z,73.7
2022-11-21T15:42:18.786Z,57.4
2022-11-21T15:44:25.452Z,42.5
2022-11-21T15:46:18.023Z,33.1
2022-11-21T15:48:18.695Z,24.5
2022-11-21T15:50:18.015Z,17.3
2022-11-21T15:52:21.789Z,11.6
2022-11-21T15:54:21.889Z,8.2
2022-11-21T15:56:22.746Z,5.5
2022-11-21T15:57:13.652Z,445.9
2022-11-21T15:58:18.014Z,3.9
2022-11-21T16:00:18.014Z,2.7
2022-11-21T16:02:21.966Z,1.9
2022-11-21T16:04:22.466Z,1.3
2022-11-21T16:08:18.562Z,0.7
2022-11-21T16:10:21.250Z,0.4
2022-11-21T16:12:18.698Z,0.3
2022-11-21T16:14:20.199Z,0.2
2022-11-21T16:16:18.054Z,0.2
2022-11-21T16:18:22.226Z,0.1
2022-11-21T16:20:21.440Z,0
2022-11-21T16:22:18.521Z,0
2022-11-21T16:24:18.779Z,0
2022-11-21T16:26:22.204Z,0
2022-11-21T16:28:18.822Z,1
2022-11-21T16:30:23.422Z,1
2022-11-21T16:32:18.732Z,1
2022-11-21T16:34:21.914Z,1
2022-11-21T16:36:17.963Z,1
2022-11-21T16:38:18.047Z,1
2022-11-21T16:40:18.820Z,1
2022-11-21T16:42:25.109Z,1
2022-11-21T16:44:18.059Z,1
2022-11-21T16:46:18.695Z,1
2022-11-21T16:48:18.999Z,1
2022-11-21T16:50:18.317Z,1
2022-11-21T16:52:18.071Z,1
2022-11-21T16:54:18.063Z,1
2022-11-21T16:56:18.992Z,1
2022-11-21T16:58:18.770Z,1
2022-11-21T17:00:18.204Z,1
2022-11-21T17:02:18.055Z,1
2022-11-21T17:04:18.748Z,1
2022-11-21T17:06:22.176Z,1
2022-11-21T17:08:18.684Z,1
2022-11-21T17:10:18.737Z,1
2022-11-21T17:12:18.717Z,1
2022-11-21T17:14:18.694Z,1
2022-11-21T17:16:18.763Z,1
2022-11-21T17:18:17.968Z,1
2022-11-21T17:20:17.935Z,1
2022-11-21T17:22:23.129Z,1
2022-11-21T17:24:24.938Z,1
2022-11-21T17:26:18.765Z,1
2022-11-21T17:28:17.942Z,1
2022-11-21T17:30:21.303Z,1
2022-11-21T17:32:17.938Z,1
2022-11-21T17:34:18.016Z,1
2022-11-21T17:36:18.032Z,1
2022-11-21T17:38:22.354Z,1
2022-11-21T17:40:18.701Z,1
2022-11-21T17:42:22.067Z,1
2022-11-21T17:44:18.252Z,1
2022-11-21T17:46:22.537Z,1
2022-11-21T17:48:18.188Z,1
2022-11-21T17:50:21.724Z,1
2022-11-21T17:52:18.810Z,1
2022-11-21T17:54:18.279Z,1
2022-11-21T17:56:18.894Z,1
2022-11-21T17:58:18.616Z,1
2022-11-21T18:00:18.018Z,1
2022-11-21T18:02:21.952Z,1
2022-11-21T18:04:22.118Z,1
2022-11-21T18:06:18.578Z,1
2022-11-21T18:08:22.191Z,1
2022-11-21T18:10:41.983Z,1
2022-11-21T18:12:18.074Z,1
2022-11-21T18:14:18.068Z,1
2022-11-21T18:16:18.756Z,1
2022-11-21T18:18:22.430Z,1
2022-11-21T18:20:18.766Z,1
2022-11-21T18:22:18.624Z,1
2022-11-21T18:26:18.892Z,1
2022-11-21T18:28:26.898Z,1
2022-11-21T18:30:18.057Z,1
2022-11-21T18:32:18.065Z,1
2022-11-21T18:34:18.765Z,1
2022-11-21T18:36:21.721Z,1
2022-11-21T18:38:40.547Z,1
2022-11-21T18:40:18.571Z,1
2022-11-21T18:42:22.021Z,1
2022-11-21T18:44:25.876Z,1
2022-11-21T18:46:18.807Z,1
2022-11-21T18:48:22.452Z,1
2022-11-21T18:50:18.040Z,1
2022-11-21T18:52:18.040Z,1
2022-11-21T18:54:18.084Z,1
2022-11-21T18:56:18.330Z,1
2022-11-21T18:58:19.088Z,1
2022-11-21T19:00:19.818Z,1
2022-11-21T19:02:18.519Z,1
2022-11-21T19:04:18.365Z,1
2022-11-21T19:06:18.860Z,1
2022-11-21T19:08:19.127Z,1
2022-11-21T19:10:41.748Z,1
2022-11-21T19:12:18.656Z,1
2022-11-21T19:14:22.001Z,1
2022-11-21T19:16:18.136Z,1
2022-11-21T19:18:19.317Z,1
2022-11-21T19:20:25.232Z,1
2022-11-21T19:22:18.548Z,1
2022-11-21T19:24:18.071Z,1
2022-11-21T19:26:21.882Z,1
2022-11-21T19:28:21.966Z,1
2022-11-21T19:30:18.712Z,1
2022-11-21T19:32:18.546Z,1
2022-11-21T19:34:21.858Z,1
2022-11-21T19:36:18.260Z,1
2022-11-21T19:38:22.031Z,1
2022-11-21T19:40:18.012Z,1
2022-11-21T19:42:18.081Z,1
2022-11-21T19:44:18.148Z,1
2022-11-21T19:46:22.770Z,1
2022-11-21T19:48:18.074Z,1
2022-11-21T19:50:18.654Z,1
2022-11-21T19:52:18.069Z,1
2022-11-21T19:54:18.604Z,1
2022-11-21T19:56:18.104Z,1
2022-11-21T19:58:22.498Z,1
2022-11-21T20:00:18.609Z,1
2022-11-21T20:02:25.460Z,1
2022-11-21T20:04:17.985Z,1
2022-11-21T20:06:22.036Z,1
2022-11-21T20:08:18.559Z,1
2022-11-21T20:10:18.807Z,1
2022-11-21T20:12:18.708Z,1
2022-11-21T20:14:25.378Z,1
2022-11-21T20:16:21.795Z,1
2022-11-21T20:18:25.407Z,1
2022-11-21T20:20:18.228Z,1
2022-11-21T20:22:18.704Z,1
2022-11-21T20:24:18.023Z,1
2022-11-21T20:26:19.157Z,1
2022-11-21T20:28:19.099Z,1
2022-11-21T20:30:18.600Z,1
2022-11-21T20:32:20.996Z,1
2022-11-21T20:34:18.090Z,1
2022-11-21T20:36:18.235Z,1
2022-11-21T20:38:23.053Z,1
2022-11-21T20:40:22.028Z,1
2022-11-21T20:42:18.124Z,1
2022-11-21T20:46:20.580Z,1
2022-11-21T20:48:20.330Z,1
2022-11-21T20:50:40.135Z,1
2022-11-21T20:54:18.214Z,1
2022-11-21T20:56:18.293Z,1
2022-11-21T20:58:22.235Z,1
2022-11-21T21:00:18.565Z,1
2022-11-21T21:02:19.281Z,1
2022-11-21T21:04:22.065Z,1
2022-11-21T21:06:18.545Z,1
2022-11-21T21:08:18.649Z,1
2022-11-21T21:10:18.046Z,1
2022-11-21T21:12:18.715Z,1
2022-11-21T21:14:20.232Z,1
2022-11-21T21:16:21.310Z,1
2022-11-21T21:18:18.524Z,1
2022-11-21T21:20:18.703Z,1
2022-11-21T21:22:18.970Z,1
2022-11-21T21:24:18.150Z,1
2022-11-21T21:26:21.709Z,1
2022-11-21T21:28:18.711Z,1
2022-11-21T21:30:22.390Z,1
2022-11-21T21:32:22.316Z,1
2022-11-21T21:34:18.037Z,1
2022-11-21T21:36:18.592Z,1
2022-11-21T21:38:18.086Z,1
2022-11-21T21:40:22.108Z,1
2022-11-21T21:42:18.752Z,1
2022-11-21T21:44:28.443Z,1
2022-11-21T21:46:24.993Z,1
2022-11-21T21:48:18.171Z,1
2022-11-21T21:50:16.621Z,1
2022-11-21T21:52:22.484Z,1
2022-11-21T21:54:18.583Z,1
2022-11-21T21:56:18.208Z,1
2022-11-21T21:58:18.349Z,1
2022-11-21T22:00:18.780Z,1
2022-11-21T22:02:18.441Z,1
2022-11-21T22:04:18.239Z,1
2022-11-21T22:06:19.261Z,1
2022-11-21T22:08:18.705Z,1
2022-11-21T22:10:18.809Z,1
2022-11-21T22:12:18.084Z,1
2022-11-21T22:14:22.225Z,1
2022-11-21T22:16:22.327Z,1
2022-11-21T22:18:22.502Z,1
2022-11-21T22:20:18.090Z,1
2022-11-21T22:22:18.577Z,1
2022-11-21T22:24:25.731Z,1
2022-11-21T22:26:18.380Z,1
2022-11-21T22:28:18.755Z,1
2022-11-21T22:30:18.894Z,1
2022-11-21T22:32:19.947Z,1
2022-11-21T22:34:18.725Z,1
2022-11-21T22:36:25.055Z,1
2022-11-21T22:38:18.056Z,1
2022-11-21T22:40:18.042Z,1
2022-11-21T22:42:18.212Z,1
2022-11-21T22:44:22.180Z,1
2022-11-21T22:48:18.120Z,1
2022-11-21T22:50:18.596Z,1
2022-11-21T22:52:22.112Z,1
2022-11-21T22:54:24.856Z,1
2022-11-21T22:56:19.065Z,1
2022-11-21T22:58:25.277Z,1
2022-11-21T23:00:18.038Z,1
2022-11-21T23:02:18.150Z,1
2022-11-21T23:04:27.028Z,1
2022-11-21T23:06:19.361Z,1
2022-11-21T23:08:18.656Z,1
2022-11-21T23:10:18.928Z,1
2022-11-21T23:12:26.705Z,1
2022-11-21T23:14:18.363Z,1
2022-11-21T23:16:18.707Z,1
2022-11-21T23:18:18.960Z,1
2022-11-21T23:20:18.099Z,1
2022-11-21T23:22:25.291Z,1
2022-11-21T23:24:18.141Z,1
2022-11-21T23:26:18.383Z,1
2022-11-21T23:28:18.073Z,1
2022-11-21T23:30:18.990Z,1
2022-11-21T23:32:18.885Z,1
2022-11-21T23:34:19.031Z,1
2022-11-21T23:36:18.465Z,1
2022-11-21T23:38:18.677Z,1
2022-11-21T23:40:18.244Z,1
2022-11-21T23:42:25.337Z,1
2022-11-21T23:44:18.957Z,1
2022-11-21T23:46:18.803Z,1
2022-11-21T23:48:18.978Z,1
2022-11-21T23:50:22.197Z,1
2022-11-21T23:52:22.064Z,1
2022-11-21T23:54:18.174Z,1
2022-11-21T23:56:21.990Z,1
2022-11-21T23:58:18.794Z,1
